Terminal Aerodrome Forecast
Issued by NWS

Home | Current Version | Previous Version | Text Only | Print | Product List | Glossary On
Versions: 1 2 3 4 5 6 7 8 9 10 11 12 13 14 15 16 17 18 19
000
FTUS46 KSEW 282300 AAA
TAFBFI
TAF AMD
KBFI 282359Z 2900/2924 02007KT 4SM -RA BR SCT008 OVC025
      TEMPO 2900/2903 2SM -RA BR BKN008 OVC025
     FM290400 VRB04KT P6SM VCSH SCT025 BKN040
     FM291100 35010KT P6SM -SHSN BKN025 BKN040
     FM291600 02012KT P6SM SCT040=

USA.gov is the U.S. government's official web portal to all federal, state and local government web resources and services.